createdAt,value
2023-05-10T00:00:30.305Z,237.90
2023-05-10T00:01:30.313Z,236.51
2023-05-10T00:02:30.413Z,237.18
2023-05-10T00:03:30.312Z,237.96
2023-05-10T00:04:30.190Z,238.04
2023-05-10T00:05:30.145Z,238.25
2023-05-10T00:06:30.107Z,238.03
2023-05-10T00:07:30.043Z,238.12
2023-05-10T00:08:30.075Z,238.66
2023-05-10T00:09:29.981Z,239.92
2023-05-10T00:10:29.944Z,238.58
2023-05-10T00:11:29.922Z,238.25
2023-05-10T00:12:29.867Z,238.37
2023-05-10T00:13:30.582Z,238.84
2023-05-10T00:14:29.900Z,238.41
2023-05-10T00:15:29.905Z,238.86
2023-05-10T00:16:29.926Z,238.47
2023-05-10T00:17:29.823Z,238.47
2023-05-10T00:18:29.799Z,238.88
2023-05-10T00:19:29.746Z,238.84
2023-05-10T00:20:29.692Z,238.49
2023-05-10T00:21:29.661Z,238.86
2023-05-10T00:22:29.681Z,239.62
2023-05-10T00:23:29.575Z,240.37
2023-05-10T00:24:29.526Z,237.66
2023-05-10T00:25:29.519Z,237.63
2023-05-10T00:26:29.561Z,237.97
2023-05-10T00:27:29.561Z,238.06
2023-05-10T00:28:29.967Z,236.46
2023-05-10T00:29:29.598Z,238.77
2023-05-10T00:30:29.640Z,238.41
2023-05-10T00:31:29.693Z,237.76
2023-05-10T00:32:29.653Z,237.86
2023-05-10T00:33:29.623Z,237.83
2023-05-10T00:34:29.544Z,238.04
2023-05-10T00:35:29.519Z,235.78
2023-05-10T00:36:29.480Z,236.29
2023-05-10T00:37:29.468Z,236.09
2023-05-10T00:38:29.439Z,235.54
2023-05-10T00:39:29.383Z,236.21
2023-05-10T00:40:29.377Z,237.26
2023-05-10T00:41:29.327Z,235.73
2023-05-10T00:42:29.353Z,235.12
2023-05-10T00:43:29.401Z,236.86
2023-05-10T00:44:29.412Z,236.87
2023-05-10T00:45:29.414Z,234.49
2023-05-10T00:46:29.626Z,235.51
2023-05-10T00:47:29.446Z,235.34
2023-05-10T00:48:29.971Z,234.68
2023-05-10T00:49:29.443Z,236.44
2023-05-10T00:50:29.478Z,235.66
2023-05-10T00:51:29.505Z,235.27
2023-05-10T00:52:29.535Z,236.74
2023-05-10T00:53:29.613Z,236.05
2023-05-10T00:54:29.590Z,237.30
2023-05-10T00:55:29.598Z,233.18
2023-05-10T00:56:29.651Z,234.95
2023-05-10T00:57:29.671Z,235.50
2023-05-10T00:58:29.692Z,234.38
2023-05-10T00:59:29.719Z,234.50
2023-05-10T01:00:29.755Z,233.97
2023-05-10T01:01:29.826Z,233.96
2023-05-10T01:02:29.864Z,234.27
2023-05-10T01:03:29.953Z,234.40
2023-05-10T01:04:29.731Z,234.44
2023-05-10T01:05:29.686Z,234.63
2023-05-10T01:06:29.632Z,234.76
2023-05-10T01:07:29.594Z,233.28
2023-05-10T01:08:29.604Z,234.19
2023-05-10T01:09:29.539Z,234.03
2023-05-10T01:10:29.526Z,233.50
2023-05-10T01:11:29.496Z,235.67
2023-05-10T01:12:29.512Z,235.71
2023-05-10T01:13:29.618Z,235.35
2023-05-10T01:14:29.381Z,232.00
2023-05-10T01:15:29.376Z,230.05
2023-05-10T01:16:29.380Z,232.40
2023-05-10T01:17:29.343Z,230.80
2023-05-10T01:18:29.517Z,229.36
2023-05-10T01:19:29.193Z,233.66
2023-05-10T01:20:29.147Z,226.56
2023-05-10T01:21:29.112Z,221.13
2023-05-10T01:22:29.081Z,217.77
2023-05-10T01:23:29.461Z,212.38
2023-05-10T01:24:29.063Z,210.18
2023-05-10T01:25:29.123Z,204.38
2023-05-10T01:26:29.123Z,202.23
2023-05-10T01:27:29.163Z,199.60
2023-05-10T01:28:29.228Z,196.45
2023-05-10T01:29:29.195Z,194.08
2023-05-10T01:30:29.292Z,193.72
2023-05-10T01:31:29.282Z,195.48
2023-05-10T01:32:29.259Z,192.99
2023-05-10T01:33:29.198Z,194.74
2023-05-10T01:34:29.157Z,193.65
2023-05-10T01:35:29.192Z,192.45
2023-05-10T01:36:29.068Z,186.02
2023-05-10T01:37:29.038Z,193.96
2023-05-10T01:38:29.060Z,192.27
2023-05-10T01:39:28.937Z,194.48
2023-05-10T01:40:28.924Z,190.41
2023-05-10T01:41:28.898Z,195.38
2023-05-10T01:42:28.825Z,198.51
2023-05-10T01:43:28.836Z,201.63
2023-05-10T01:44:28.781Z,199.22
2023-05-10T01:45:28.795Z,200.66
2023-05-10T01:46:28.701Z,200.75
2023-05-10T01:47:28.661Z,200.82
2023-05-10T01:48:28.643Z,200.91
2023-05-10T01:49:28.574Z,200.89
2023-05-10T01:50:28.544Z,200.68
2023-05-10T01:51:28.519Z,197.36
2023-05-10T01:52:28.488Z,195.54
2023-05-10T01:53:28.463Z,197.11
2023-05-10T01:54:28.394Z,197.33
2023-05-10T01:55:28.348Z,191.15
2023-05-10T01:56:28.316Z,185.40
2023-05-10T01:57:28.282Z,186.38
2023-05-10T01:58:28.527Z,183.64
2023-05-10T01:59:28.224Z,182.95
2023-05-10T02:00:28.233Z,183.96
2023-05-10T02:01:28.159Z,180.04
2023-05-10T02:02:28.159Z,177.64
2023-05-10T02:03:28.140Z,175.62
2023-05-10T02:04:28.058Z,177.78
2023-05-10T02:05:28.051Z,178.00
2023-05-10T02:06:27.993Z,178.35
2023-05-10T02:07:27.954Z,176.59
2023-05-10T02:08:27.930Z,170.87
2023-05-10T02:09:27.924Z,170.10
2023-05-10T02:10:27.919Z,168.47
2023-05-10T02:11:27.970Z,168.92
2023-05-10T02:12:27.847Z,171.03
2023-05-10T02:13:27.939Z,175.09
2023-05-10T02:14:27.899Z,182.97
2023-05-10T02:15:27.828Z,189.27
2023-05-10T02:16:27.714Z,192.11
2023-05-10T02:17:27.711Z,194.67
2023-05-10T02:18:27.665Z,195.68
2023-05-10T02:19:27.777Z,194.83
2023-05-10T02:20:27.808Z,193.78
2023-05-10T02:21:27.740Z,196.87
2023-05-10T02:22:27.743Z,196.77
2023-05-10T02:23:27.869Z,197.58
2023-05-10T02:24:27.872Z,198.69
2023-05-10T02:25:27.891Z,199.28
2023-05-10T02:26:27.911Z,198.34
2023-05-10T02:27:27.891Z,198.32
2023-05-10T02:28:27.935Z,197.34
2023-05-10T02:29:28.072Z,195.94
2023-05-10T02:30:27.958Z,196.30
2023-05-10T02:31:28.010Z,198.34
2023-05-10T02:32:28.032Z,198.54
2023-05-10T02:33:27.937Z,198.96
2023-05-10T02:34:27.968Z,198.58
2023-05-10T02:35:27.996Z,198.95
2023-05-10T02:36:27.845Z,199.75
2023-05-10T02:37:27.806Z,200.18
2023-05-10T02:38:27.821Z,200.17
2023-05-10T02:39:27.865Z,197.16
2023-05-10T02:40:28.884Z,194.54
2023-05-10T02:41:27.670Z,194.64
2023-05-10T02:42:27.652Z,191.47
2023-05-10T02:43:27.626Z,185.23
2023-05-10T02:44:27.629Z,183.58
2023-05-10T02:45:27.655Z,181.00
2023-05-10T02:46:27.720Z,164.38
2023-05-10T02:47:27.912Z,153.24
2023-05-10T02:48:27.460Z,141.73
2023-05-10T02:49:27.469Z,138.49
2023-05-10T02:50:27.415Z,134.85
2023-05-10T02:51:27.392Z,130.25
2023-05-10T02:52:27.373Z,124.84
2023-05-10T02:53:27.301Z,116.78
2023-05-10T02:54:27.291Z,110.68
2023-05-10T02:55:27.250Z,102.37
2023-05-10T02:56:27.278Z,93.57
2023-05-10T02:57:27.200Z,87.53
2023-05-10T02:58:27.198Z,84.94
2023-05-10T02:59:27.199Z,83.29
2023-05-10T03:00:27.146Z,75.87
2023-05-10T03:01:27.149Z,71.48
2023-05-10T03:02:27.100Z,66.25
2023-05-10T03:03:27.045Z,61.80
2023-05-10T03:04:27.089Z,63.23
2023-05-10T03:05:27.063Z,59.47
2023-05-10T03:06:26.973Z,52.30
2023-05-10T03:07:26.962Z,46.58
2023-05-10T03:08:26.938Z,46.96
2023-05-10T03:09:26.934Z,44.68
2023-05-10T03:10:26.892Z,39.81
2023-05-10T03:11:26.874Z,41.04
2023-05-10T03:12:26.832Z,42.92
2023-05-10T03:13:26.958Z,38.46
2023-05-10T03:14:28.525Z,38.47
2023-05-10T03:15:26.769Z,36.46
2023-05-10T03:16:26.865Z,34.53
2023-05-10T03:17:26.775Z,37.22
2023-05-10T03:18:26.691Z,37.75
2023-05-10T03:19:27.012Z,36.01
2023-05-10T03:20:26.646Z,32.84
2023-05-10T03:21:26.651Z,32.23
2023-05-10T03:22:26.582Z,30.79
2023-05-10T03:23:26.581Z,26.02
2023-05-10T03:24:26.554Z,32.16
2023-05-10T03:25:26.519Z,26.57
2023-05-10T03:26:26.468Z,25.44
2023-05-10T03:27:26.466Z,24.28
2023-05-10T03:28:26.424Z,21.01
2023-05-10T03:29:26.404Z,17.47
2023-05-10T03:30:26.355Z,21.59
2023-05-10T03:31:26.395Z,22.12
2023-05-10T03:32:26.361Z,17.16
2023-05-10T03:33:26.343Z,24.93
2023-05-10T03:34:26.319Z,23.22
2023-05-10T03:35:26.292Z,20.38
2023-05-10T03:36:26.290Z,21.24
2023-05-10T03:37:26.210Z,22.67
2023-05-10T03:38:26.885Z,27.67
2023-05-10T03:39:26.188Z,26.28
2023-05-10T03:40:26.133Z,26.46
2023-05-10T03:41:26.107Z,26.53
2023-05-10T03:42:26.138Z,23.21
2023-05-10T03:43:26.117Z,23.12
2023-05-10T03:44:26.050Z,25.02
2023-05-10T03:45:26.010Z,26.53
2023-05-10T03:46:26.085Z,25.85
2023-05-10T03:47:26.032Z,26.53
2023-05-10T03:48:25.941Z,25.48
2023-05-10T03:49:25.950Z,25.23
2023-05-10T03:50:25.913Z,26.62
2023-05-10T03:51:25.897Z,25.15
2023-05-10T03:52:25.871Z,27.09
2023-05-10T03:53:25.848Z,26.49
2023-05-10T03:54:25.815Z,25.21
2023-05-10T03:55:25.777Z,25.41
2023-05-10T03:56:25.790Z,26.33
2023-05-10T03:57:25.770Z,25.37
2023-05-10T03:58:25.720Z,25.76
2023-05-10T03:59:33.536Z,26.26
2023-05-10T04:00:25.688Z,25.51
2023-05-10T04:01:25.654Z,26.18
2023-05-10T04:02:25.789Z,28.13
2023-05-10T04:03:25.670Z,31.21
2023-05-10T04:04:25.757Z,34.18
2023-05-10T04:05:25.602Z,34.48
2023-05-10T04:06:25.578Z,34.56
2023-05-10T04:07:25.526Z,34.93
2023-05-10T04:08:25.493Z,36.52
2023-05-10T04:09:25.617Z,34.90
2023-05-10T04:10:25.480Z,34.58
2023-05-10T04:11:25.436Z,31.94
2023-05-10T04:12:25.432Z,32.74
2023-05-10T04:13:25.426Z,33.80
2023-05-10T04:14:25.747Z,31.21
2023-05-10T04:15:25.376Z,32.22
2023-05-10T04:16:25.390Z,35.31
2023-05-10T04:17:25.392Z,35.38
2023-05-10T04:18:25.309Z,33.10
2023-05-10T04:19:25.312Z,35.40
2023-05-10T04:20:25.351Z,36.46
2023-05-10T04:21:25.235Z,31.51
2023-05-10T04:22:25.286Z,35.51
2023-05-10T04:23:25.276Z,33.61
2023-05-10T04:24:25.183Z,33.68
2023-05-10T04:25:25.156Z,31.71
2023-05-10T04:26:25.203Z,32.00
2023-05-10T04:27:25.131Z,34.77
2023-05-10T04:28:25.091Z,32.93
2023-05-10T04:29:25.070Z,38.62
2023-05-10T04:30:25.051Z,40.77
2023-05-10T04:31:25.091Z,47.20
2023-05-10T04:32:25.002Z,47.63
2023-05-10T04:33:25.021Z,48.79
2023-05-10T04:34:24.958Z,51.13
2023-05-10T04:35:24.925Z,56.26
2023-05-10T04:36:25.536Z,64.67
2023-05-10T04:37:24.881Z,72.16
2023-05-10T04:38:24.856Z,73.43
2023-05-10T04:39:24.846Z,76.10
2023-05-10T04:40:24.833Z,75.87
2023-05-10T04:41:24.796Z,76.42
2023-05-10T04:42:24.758Z,73.86
2023-05-10T04:43:24.737Z,70.54
2023-05-10T04:44:24.767Z,71.52
2023-05-10T04:45:24.729Z,66.78
2023-05-10T04:46:24.730Z,69.45
2023-05-10T04:47:24.687Z,67.20
2023-05-10T04:48:24.712Z,65.63
2023-05-10T04:49:24.752Z,64.69
2023-05-10T04:50:24.745Z,64.27
2023-05-10T04:51:24.804Z,64.21
2023-05-10T04:52:24.787Z,68.97
2023-05-10T04:53:24.824Z,68.73
2023-05-10T04:54:24.857Z,67.64
2023-05-10T04:55:24.887Z,66.52
2023-05-10T04:56:24.883Z,67.27
2023-05-10T04:57:24.959Z,67.47
2023-05-10T04:58:24.951Z,76.58
2023-05-10T04:59:24.965Z,72.35
2023-05-10T05:00:24.988Z,68.97
2023-05-10T05:01:25.008Z,70.81
2023-05-10T05:02:25.059Z,71.01
2023-05-10T05:03:25.130Z,69.55
2023-05-10T05:04:25.117Z,68.45
2023-05-10T05:05:25.120Z,72.57
2023-05-10T05:06:25.141Z,76.09
2023-05-10T05:07:25.166Z,75.13
2023-05-10T05:08:25.211Z,73.93
2023-05-10T05:09:25.261Z,81.98
2023-05-10T05:10:25.267Z,82.02
2023-05-10T05:11:25.288Z,79.02
2023-05-10T05:12:25.342Z,80.17
2023-05-10T05:13:25.549Z,80.46
2023-05-10T05:14:25.397Z,77.63
2023-05-10T05:15:25.425Z,74.89
2023-05-10T05:16:25.466Z,74.05
2023-05-10T05:17:25.577Z,72.90
2023-05-10T05:18:25.430Z,72.98
2023-05-10T05:19:25.436Z,73.19
2023-05-10T05:20:25.444Z,73.09
2023-05-10T05:21:25.375Z,73.51
2023-05-10T05:22:25.377Z,74.79
2023-05-10T05:23:25.358Z,74.39
2023-05-10T05:24:25.350Z,73.06
2023-05-10T05:25:25.308Z,73.83
2023-05-10T05:26:25.383Z,75.68
2023-05-10T05:27:25.255Z,78.78
2023-05-10T05:28:25.339Z,81.23
2023-05-10T05:29:25.262Z,80.12
2023-05-10T05:30:25.237Z,82.18
2023-05-10T05:31:25.274Z,84.08
2023-05-10T05:32:25.188Z,82.32
2023-05-10T05:33:25.167Z,78.97
2023-05-10T05:34:25.313Z,79.07
2023-05-10T05:35:26.034Z,79.93
2023-05-10T05:36:25.103Z,81.10
2023-05-10T05:37:25.123Z,79.37
2023-05-10T05:38:25.155Z,79.64
2023-05-10T05:39:25.245Z,82.66
2023-05-10T05:40:25.195Z,82.80
2023-05-10T05:41:25.265Z,83.92
2023-05-10T05:42:25.326Z,80.98
2023-05-10T05:43:25.294Z,79.44
2023-05-10T05:44:25.316Z,79.02
2023-05-10T05:45:25.363Z,74.92
2023-05-10T05:46:25.686Z,72.95
2023-05-10T05:47:25.646Z,74.64
2023-05-10T05:48:25.448Z,72.83
2023-05-10T05:49:25.565Z,68.36
2023-05-10T05:50:25.524Z,72.41
2023-05-10T05:51:25.573Z,67.72
2023-05-10T05:52:25.939Z,65.04
2023-05-10T05:53:25.592Z,65.78
2023-05-10T05:54:29.152Z,63.32
2023-05-10T05:55:25.614Z,63.18
2023-05-10T05:56:25.699Z,58.84
2023-05-10T05:57:25.608Z,57.17
2023-05-10T05:58:25.848Z,50.27
2023-05-10T05:59:25.541Z,48.40
2023-05-10T06:00:25.515Z,50.52
2023-05-10T06:01:25.546Z,49.52
2023-05-10T06:02:25.614Z,48.90
2023-05-10T06:03:25.563Z,44.65
2023-05-10T06:04:25.547Z,43.21
2023-05-10T06:05:25.456Z,45.33
2023-05-10T06:06:25.465Z,46.57
2023-05-10T06:07:25.493Z,46.76
2023-05-10T06:08:25.392Z,47.29
2023-05-10T06:09:25.398Z,48.31
2023-05-10T06:10:25.458Z,52.42
2023-05-10T06:11:26.078Z,60.29
2023-05-10T06:12:25.426Z,58.98
2023-05-10T06:13:25.394Z,61.12
2023-05-10T06:14:25.819Z,62.81
2023-05-10T06:15:25.440Z,60.72
2023-05-10T06:16:25.397Z,58.88
2023-05-10T06:17:25.338Z,55.10
2023-05-10T06:18:25.275Z,52.60
2023-05-10T06:19:25.287Z,51.83
2023-05-10T06:20:25.310Z,52.59
2023-05-10T06:21:25.367Z,48.12
2023-05-10T06:22:25.393Z,46.94
2023-05-10T06:23:25.417Z,42.68
2023-05-10T06:24:25.454Z,42.64
2023-05-10T06:25:25.488Z,36.57
2023-05-10T06:26:25.579Z,28.71
2023-05-10T06:27:25.559Z,27.19
2023-05-10T06:28:25.589Z,27.37
2023-05-10T06:29:28.738Z,25.89
2023-05-10T06:30:25.625Z,24.54
2023-05-10T06:31:25.553Z,21.40
2023-05-10T06:32:25.504Z,16.64
2023-05-10T06:33:25.506Z,25.23
2023-05-10T06:34:25.505Z,27.09
2023-05-10T06:35:25.443Z,26.17
2023-05-10T06:36:25.438Z,26.15
2023-05-10T06:37:25.407Z,26.29
2023-05-10T06:38:25.465Z,23.20
2023-05-10T06:39:25.432Z,23.09
2023-05-10T06:40:25.397Z,14.29
2023-05-10T06:41:25.347Z,10.45
2023-05-10T06:42:25.345Z,25.00
2023-05-10T06:43:25.360Z,26.42
2023-05-10T06:44:25.404Z,26.69
2023-05-10T06:45:25.316Z,25.00
2023-05-10T06:46:25.318Z,30.56
2023-05-10T06:47:25.336Z,27.94
2023-05-10T06:48:25.290Z,26.37
2023-05-10T06:49:25.472Z,25.48
2023-05-10T06:50:25.454Z,25.00
2023-05-10T06:51:25.428Z,25.00
2023-05-10T06:52:25.546Z,25.71
2023-05-10T06:53:25.496Z,25.00
2023-05-10T06:54:25.557Z,26.79
2023-05-10T06:55:25.687Z,27.41
2023-05-10T06:56:25.609Z,25.26
2023-05-10T06:58:25.612Z,25.50
2023-05-10T06:59:25.646Z,23.84
2023-05-10T07:00:25.676Z,24.52
2023-05-10T07:01:25.620Z,20.34
2023-05-10T07:02:25.580Z,18.83
2023-05-10T07:03:25.507Z,14.56
2023-05-10T07:04:25.544Z,13.26
2023-05-10T07:05:25.575Z,25.00
2023-05-10T07:06:32.853Z,25.98
2023-05-10T07:07:26.448Z,25.26
2023-05-10T07:08:25.422Z,20.39
2023-05-10T07:09:25.445Z,19.47
2023-05-10T07:10:25.398Z,17.27
2023-05-10T07:11:25.392Z,14.01
2023-05-10T07:12:25.412Z,26.04
2023-05-10T07:13:25.422Z,25.00
2023-05-10T07:14:25.329Z,25.26
2023-05-10T07:15:25.364Z,25.00
2023-05-10T07:16:25.318Z,27.66
2023-05-10T07:17:25.362Z,25.00
2023-05-10T07:18:25.340Z,27.52
2023-05-10T07:19:25.267Z,25.91
2023-05-10T07:20:25.330Z,25.09
2023-05-10T07:21:25.422Z,25.79
2023-05-10T07:22:25.391Z,24.96
2023-05-10T07:23:25.436Z,27.54
2023-05-10T07:24:25.440Z,26.18
2023-05-10T07:25:25.531Z,25.00
2023-05-10T07:26:25.549Z,24.59
2023-05-10T07:27:25.555Z,26.79
2023-05-10T07:28:25.609Z,25.51
2023-05-10T07:29:25.634Z,25.00
2023-05-10T07:30:25.699Z,26.85
2023-05-10T07:31:25.706Z,25.64
2023-05-10T07:32:25.836Z,25.54
2023-05-10T07:33:25.831Z,25.00
2023-05-10T07:34:25.834Z,28.34
2023-05-10T07:35:25.877Z,28.57
2023-05-10T07:36:25.941Z,28.26
2023-05-10T07:37:25.988Z,29.18
2023-05-10T07:38:25.985Z,35.66
2023-05-10T07:39:27.961Z,40.25
2023-05-10T07:40:26.117Z,39.59
2023-05-10T07:41:26.116Z,37.54
2023-05-10T07:42:26.164Z,39.78
2023-05-10T07:43:26.226Z,46.91
2023-05-10T07:44:26.315Z,50.74
2023-05-10T07:45:32.456Z,54.85
2023-05-10T07:46:26.479Z,55.10
2023-05-10T07:47:26.242Z,56.54
2023-05-10T07:48:26.214Z,59.86
2023-05-10T07:49:26.248Z,63.90
2023-05-10T07:50:26.183Z,72.66
2023-05-10T07:51:27.093Z,76.76
2023-05-10T07:52:26.137Z,81.92
2023-05-10T07:53:26.128Z,83.09
2023-05-10T07:54:26.099Z,88.16
2023-05-10T07:55:28.639Z,88.94
2023-05-10T07:56:26.304Z,89.17
2023-05-10T07:57:26.277Z,91.20
2023-05-10T07:58:26.365Z,104.61
2023-05-10T07:59:26.317Z,326.65
2023-05-10T08:00:29.698Z,324.13
2023-05-10T08:01:26.357Z,251.28
2023-05-10T08:02:26.447Z,218.48
2023-05-10T08:03:27.210Z,199.11
2023-05-10T08:04:26.310Z,193.72
2023-05-10T08:05:26.256Z,191.72
2023-05-10T08:06:26.217Z,191.73
2023-05-10T08:07:26.213Z,194.73
2023-05-10T08:08:26.152Z,197.36
2023-05-10T08:09:26.172Z,199.91
2023-05-10T08:10:27.114Z,202.09
2023-05-10T08:11:26.243Z,206.60
2023-05-10T08:12:26.643Z,206.79
2023-05-10T08:13:26.268Z,207.43
2023-05-10T08:14:26.648Z,209.62
2023-05-10T08:15:30.217Z,214.12
2023-05-10T08:16:25.974Z,207.18
2023-05-10T08:17:26.042Z,209.32
2023-05-10T08:18:25.867Z,213.88
2023-05-10T08:19:25.878Z,207.53
2023-05-10T08:20:25.868Z,211.36
2023-05-10T08:21:26.625Z,219.69
2023-05-10T08:22:25.708Z,231.31
2023-05-10T08:23:25.662Z,246.93
2023-05-10T08:24:25.637Z,249.25
2023-05-10T08:25:25.676Z,249.84
2023-05-10T08:26:25.574Z,249.56
2023-05-10T08:27:25.529Z,249.72
2023-05-10T08:28:25.659Z,249.99
2023-05-10T08:29:26.750Z,249.34
2023-05-10T08:30:25.533Z,249.57
2023-05-10T08:31:25.464Z,250.00
2023-05-10T08:32:25.409Z,250.00
2023-05-10T08:33:25.312Z,249.42
2023-05-10T08:34:25.483Z,249.98
2023-05-10T08:35:25.482Z,247.98
2023-05-10T08:36:26.448Z,245.95
2023-05-10T08:37:25.182Z,235.13
2023-05-10T08:38:25.179Z,231.09
2023-05-10T08:39:30.499Z,231.83
2023-05-10T08:40:26.106Z,231.85
2023-05-10T08:41:25.131Z,231.22
2023-05-10T08:42:25.057Z,227.78
2023-05-10T08:43:25.012Z,222.29
2023-05-10T08:44:24.987Z,223.92
2023-05-10T08:45:24.967Z,221.83
2023-05-10T08:46:25.032Z,222.37
2023-05-10T08:47:24.911Z,222.09
2023-05-10T08:48:24.902Z,225.42
2023-05-10T08:49:24.830Z,196.52
2023-05-10T08:50:24.867Z,153.40
2023-05-10T08:51:24.860Z,130.59
2023-05-10T08:52:24.826Z,105.99
2023-05-10T08:53:24.832Z,88.16
2023-05-10T08:54:24.816Z,76.02
2023-05-10T08:55:24.831Z,64.95
2023-05-10T08:56:24.777Z,54.30
2023-05-10T08:57:25.635Z,43.32
2023-05-10T08:58:24.785Z,32.35
2023-05-10T08:59:24.787Z,24.49
2023-05-10T09:00:24.849Z,25.00
2023-05-10T09:01:24.888Z,25.00
2023-05-10T09:02:24.865Z,25.00
2023-05-10T09:03:24.825Z,27.28
2023-05-10T09:04:25.114Z,26.93
2023-05-10T09:05:24.919Z,28.61
2023-05-10T09:06:24.864Z,32.09
2023-05-10T09:07:24.863Z,37.33
2023-05-10T09:08:24.859Z,44.99
2023-05-10T09:09:25.074Z,55.78
2023-05-10T09:10:25.132Z,67.93
2023-05-10T09:11:24.912Z,76.81
2023-05-10T09:12:24.899Z,83.42
2023-05-10T09:13:24.906Z,89.06
2023-05-10T09:14:24.910Z,91.58
2023-05-10T09:15:24.906Z,97.12
2023-05-10T09:16:24.954Z,103.35
2023-05-10T09:17:25.030Z,103.30
2023-05-10T09:18:27.840Z,109.98
2023-05-10T09:19:24.890Z,111.76
2023-05-10T09:20:24.914Z,116.90
2023-05-10T09:21:24.827Z,117.60
2023-05-10T09:22:24.806Z,122.54
2023-05-10T09:23:24.842Z,124.63
2023-05-10T09:24:24.752Z,126.28
2023-05-10T09:25:24.820Z,131.69
2023-05-10T09:26:24.717Z,133.79
2023-05-10T09:27:24.708Z,138.96
2023-05-10T09:28:24.687Z,139.30
2023-05-10T09:29:24.646Z,140.17
2023-05-10T09:30:24.636Z,142.86
2023-05-10T09:31:24.606Z,144.70
2023-05-10T09:32:24.607Z,146.49
2023-05-10T09:33:24.704Z,149.63
2023-05-10T09:34:24.565Z,153.18
2023-05-10T09:35:25.864Z,153.80
2023-05-10T09:36:24.777Z,153.91
2023-05-10T09:37:24.734Z,154.43
2023-05-10T09:38:24.743Z,157.01
2023-05-10T09:39:24.729Z,159.98
2023-05-10T09:40:24.721Z,163.87
2023-05-10T09:41:25.675Z,163.50
2023-05-10T09:42:24.712Z,172.26
2023-05-10T09:43:24.675Z,168.09
2023-05-10T09:44:24.671Z,169.26
2023-05-10T09:45:24.753Z,174.81
2023-05-10T09:46:25.301Z,175.96
2023-05-10T09:47:24.662Z,179.24
2023-05-10T09:48:24.568Z,178.56
2023-05-10T09:49:24.533Z,179.84
2023-05-10T09:50:24.548Z,183.27
2023-05-10T09:51:24.490Z,187.04
2023-05-10T09:52:24.478Z,189.83
2023-05-10T09:53:24.451Z,192.72
2023-05-10T09:54:24.432Z,192.82
2023-05-10T09:55:24.448Z,192.31
2023-05-10T09:56:24.410Z,187.60
2023-05-10T09:57:24.379Z,185.42
2023-05-10T09:58:24.358Z,182.43
2023-05-10T09:59:24.365Z,187.87
2023-05-10T10:00:24.335Z,188.14
2023-05-10T10:01:24.391Z,190.19
2023-05-10T10:02:24.321Z,188.57
2023-05-10T10:03:24.279Z,185.20
2023-05-10T10:04:25.198Z,182.04
2023-05-10T10:05:24.216Z,181.44
2023-05-10T10:06:29.902Z,177.78
2023-05-10T10:07:25.200Z,177.82
2023-05-10T10:08:24.166Z,178.08
2023-05-10T10:09:24.140Z,178.23
2023-05-10T10:10:24.123Z,176.83
2023-05-10T10:11:24.184Z,174.35
2023-05-10T10:12:24.048Z,170.81
2023-05-10T10:13:24.049Z,165.21
2023-05-10T10:14:24.014Z,165.81
2023-05-10T10:15:24.084Z,170.30
2023-05-10T10:16:24.122Z,172.02
2023-05-10T10:17:24.118Z,174.41
2023-05-10T10:18:23.945Z,179.67
2023-05-10T10:19:23.933Z,182.65
2023-05-10T10:20:23.989Z,189.33
2023-05-10T10:21:23.857Z,192.86
2023-05-10T10:22:23.817Z,191.33
2023-05-10T10:23:23.792Z,194.08
2023-05-10T10:24:23.752Z,195.80
2023-05-10T10:25:23.721Z,196.34
2023-05-10T10:26:23.707Z,197.33
2023-05-10T10:27:23.658Z,193.80
2023-05-10T10:28:24.276Z,197.65
2023-05-10T10:29:23.630Z,192.15
2023-05-10T10:30:23.738Z,191.10
2023-05-10T10:32:23.747Z,178.44
2023-05-10T10:33:28.585Z,172.52
2023-05-10T10:34:24.734Z,169.44
2023-05-10T10:35:23.709Z,168.64
2023-05-10T10:36:23.678Z,164.13
2023-05-10T10:37:23.650Z,152.08
2023-05-10T10:38:23.650Z,143.93
2023-05-10T10:39:23.611Z,136.83
2023-05-10T10:40:23.575Z,129.68
2023-05-10T10:41:23.619Z,126.05
2023-05-10T10:42:23.554Z,124.51
2023-05-10T10:43:23.584Z,124.31
2023-05-10T10:44:23.574Z,120.19
2023-05-10T10:45:23.480Z,116.59
2023-05-10T10:46:23.477Z,113.55
2023-05-10T10:47:23.469Z,110.42
2023-05-10T10:48:23.388Z,109.85
2023-05-10T10:49:23.431Z,114.58
2023-05-10T10:50:23.448Z,119.19
2023-05-10T10:51:23.386Z,120.12
2023-05-10T10:52:24.235Z,128.15
2023-05-10T10:53:23.429Z,130.36
2023-05-10T10:54:23.298Z,138.14
2023-05-10T10:55:23.340Z,138.65
2023-05-10T10:56:23.229Z,142.00
2023-05-10T10:57:23.269Z,146.82
2023-05-10T10:58:23.164Z,154.72
2023-05-10T10:59:23.136Z,157.97
2023-05-10T11:00:23.324Z,157.77
2023-05-10T11:01:23.135Z,160.30
2023-05-10T11:02:23.122Z,161.43
2023-05-10T11:03:23.048Z,159.26
2023-05-10T11:04:23.122Z,164.10
2023-05-10T11:05:23.045Z,165.57
2023-05-10T11:06:23.081Z,164.98
2023-05-10T11:07:23.177Z,161.73
2023-05-10T11:08:23.110Z,159.22
2023-05-10T11:09:23.123Z,158.93
2023-05-10T11:10:23.377Z,159.73
2023-05-10T11:11:23.193Z,158.59
2023-05-10T11:12:23.148Z,158.31
2023-05-10T11:13:23.162Z,159.80
2023-05-10T11:14:23.120Z,159.84
2023-05-10T11:15:23.114Z,156.18
2023-05-10T11:16:23.123Z,155.16
2023-05-10T11:17:23.137Z,154.25
2023-05-10T11:18:23.050Z,154.16
2023-05-10T11:19:23.037Z,151.73
2023-05-10T11:20:23.037Z,150.23
2023-05-10T11:21:23.191Z,149.50
2023-05-10T11:22:22.939Z,144.47
2023-05-10T11:23:23.066Z,136.90
2023-05-10T11:24:23.714Z,129.17
2023-05-10T11:25:22.907Z,119.60
2023-05-10T11:26:22.867Z,114.55
2023-05-10T11:27:23.070Z,111.20
2023-05-10T11:28:24.748Z,109.06
2023-05-10T11:29:22.801Z,96.61
2023-05-10T11:30:22.839Z,90.21
2023-05-10T11:31:22.962Z,84.45
2023-05-10T11:32:22.859Z,84.73
2023-05-10T11:33:22.755Z,86.49
2023-05-10T11:34:22.768Z,88.13
2023-05-10T11:35:22.753Z,87.47
2023-05-10T11:36:23.365Z,86.60
2023-05-10T11:37:22.682Z,82.92
2023-05-10T11:38:22.662Z,78.55
2023-05-10T11:39:22.656Z,82.72
2023-05-10T11:40:23.234Z,82.86
2023-05-10T11:41:22.637Z,85.09
2023-05-10T11:42:22.602Z,84.80
2023-05-10T11:43:22.598Z,88.80
2023-05-10T11:44:22.647Z,93.43
2023-05-10T11:45:22.561Z,90.80
2023-05-10T11:46:22.610Z,96.95
2023-05-10T11:47:22.570Z,115.73
2023-05-10T11:48:22.531Z,129.45
2023-05-10T11:49:22.471Z,150.33
2023-05-10T11:50:22.441Z,148.70
2023-05-10T11:51:22.717Z,151.13
2023-05-10T11:52:22.440Z,146.82
2023-05-10T11:53:24.749Z,144.46
2023-05-10T11:54:22.388Z,146.56
2023-05-10T11:55:22.514Z,150.35
2023-05-10T11:56:22.348Z,150.22
2023-05-10T11:57:22.314Z,150.23
2023-05-10T11:58:22.464Z,142.81
2023-05-10T11:59:22.248Z,145.19
2023-05-10T12:00:22.315Z,130.13
2023-05-10T12:01:22.258Z,120.57
2023-05-10T12:02:22.193Z,117.45
2023-05-10T12:03:22.312Z,125.16
2023-05-10T12:04:22.284Z,122.50
2023-05-10T12:05:22.141Z,122.62
2023-05-10T12:06:22.143Z,123.68
2023-05-10T12:07:22.087Z,124.89
2023-05-10T12:08:22.073Z,124.40
2023-05-10T12:09:35.427Z,124.34
2023-05-10T12:10:23.748Z,120.11
2023-05-10T12:11:22.041Z,116.28
2023-05-10T12:12:22.002Z,113.26
2023-05-10T12:13:21.941Z,118.59
2023-05-10T12:14:21.931Z,115.33
2023-05-10T12:15:21.936Z,111.62
2023-05-10T12:16:21.912Z,107.38
2023-05-10T12:17:21.863Z,104.77
2023-05-10T12:18:21.854Z,104.57
2023-05-10T12:19:21.799Z,104.39
2023-05-10T12:20:21.769Z,101.90
2023-05-10T12:21:21.769Z,100.83
2023-05-10T12:22:21.713Z,100.76
2023-05-10T12:23:21.706Z,101.81
2023-05-10T12:24:21.740Z,100.54
2023-05-10T12:25:21.625Z,104.12
2023-05-10T12:26:21.671Z,104.17
2023-05-10T12:27:21.560Z,102.62
2023-05-10T12:28:21.548Z,101.02
2023-05-10T12:29:21.563Z,97.89
2023-05-10T12:30:21.550Z,98.90
2023-05-10T12:31:22.505Z,106.69
2023-05-10T12:32:21.495Z,102.19
2023-05-10T12:33:21.440Z,99.60
2023-05-10T12:34:21.415Z,97.99
2023-05-10T12:35:21.384Z,97.02
2023-05-10T12:36:21.748Z,96.21
2023-05-10T12:37:21.350Z,97.60
2023-05-10T12:38:21.325Z,96.14
2023-05-10T12:39:21.321Z,102.05
2023-05-10T12:40:21.277Z,100.99
2023-05-10T12:41:21.308Z,98.53